Time;durP1;ratioP1;P1;durP2;ratioP2;P2;SDS_P1;SDS_P2;PMS_P1;PMS_P2;Temp;Humidity;BMP_temperature;BMP_pressure;BME280_temperature;BME280_humidity;BME280_pressure;Samples;Min_cycle;Max_cycle;Signal;HPM_P1;HPM_P2
2023/08/15 00:01:44;;;;;;;0.80;0.70;;;;;;;29.23;43.70;101132.44;4922045;28;97296;-80
2023/08/15 00:04:10;;;;;;;1.13;0.73;;;;;;;29.22;43.72;101128.81;4925332;28;96708;-79
2023/08/15 00:06:37;;;;;;;1.00;0.75;;;;;;;29.23;43.72;101125.00;4926819;28;97120;-79
2023/08/15 00:09:04;;;;;;;1.00;0.80;;;;;;;29.23;43.87;101115.84;4925097;28;96672;-79
2023/08/15 00:11:30;;;;;;;1.00;0.60;;;;;;;29.23;43.72;101124.16;4925550;28;96580;-79
2023/08/15 00:13:57;;;;;;;1.00;0.80;;;;;;;29.23;43.76;101119.47;4926101;28;96639;-80
2023/08/15 00:16:23;;;;;;;0.95;0.80;;;;;;;29.23;43.84;101119.47;4923930;28;96897;-79
2023/08/15 00:18:50;;;;;;;1.08;0.90;;;;;;;29.23;43.74;101113.94;4926042;28;97864;-79
2023/08/15 00:21:17;;;;;;;1.17;0.88;;;;;;;29.22;43.75;101115.00;4923886;28;96782;-79
2023/08/15 00:23:43;;;;;;;0.80;0.70;;;;;;;29.23;43.70;101113.06;4926431;28;97332;-80
2023/08/15 00:26:10;;;;;;;1.27;0.80;;;;;;;29.22;44.16;101117.75;4927753;28;97087;-80
2023/08/15 00:28:36;;;;;;;1.15;0.88;;;;;;;29.22;43.82;101122.44;4927854;28;96664;-79
2023/08/15 00:31:04;;;;;;;1.02;0.80;;;;;;;29.21;43.69;101115.22;4909845;28;96736;-80
2023/08/15 00:33:30;;;;;;;2.10;1.00;;;;;;;29.22;43.78;101116.91;4923213;28;96565;-79
2023/08/15 00:35:57;;;;;;;0.90;0.70;;;;;;;29.23;43.91;101118.63;4926754;28;98924;-79
2023/08/15 00:38:23;;;;;;;1.35;0.80;;;;;;;29.22;43.84;101123.28;4910559;28;99817;-80
2023/08/15 00:40:51;;;;;;;0.88;0.70;;;;;;;29.22;43.87;101122.44;4920995;28;96543;-79
2023/08/15 00:43:19;;;;;;;1.05;0.80;;;;;;;29.23;43.75;101118.63;4926792;28;96767;-79
2023/08/15 00:45:46;;;;;;;0.90;0.70;;;;;;;29.23;43.66;101113.06;4924715;28;100430;-79
2023/08/15 00:48:13;;;;;;;1.08;0.93;;;;;;;29.23;43.99;101110.31;4906498;28;99069;-80
2023/08/15 00:50:42;;;;;;;1.35;1.10;;;;;;;29.23;43.72;101118.63;4925611;28;96783;-80
2023/08/15 00:53:10;;;;;;;1.20;0.90;;;;;;;29.23;43.91;101124.16;4926186;28;97008;-80
2023/08/15 00:55:38;;;;;;;1.25;0.90;;;;;;;29.23;43.83;101132.44;4924431;28;100375;-80
2023/08/15 00:58:05;;;;;;;1.25;0.75;;;;;;;29.22;43.98;101122.44;4923955;28;99564;-79
2023/08/15 01:00:32;;;;;;;0.98;0.80;;;;;;;29.22;43.64;101112.22;4924969;28;96667;-80
2023/08/15 01:02:58;;;;;;;1.00;0.90;;;;;;;29.22;43.75;101111.38;4927181;28;96856;-80
2023/08/15 01:05:28;;;;;;;0.93;0.70;;;;;;;29.22;43.73;101105.84;4908120;28;98034;-79
2023/08/15 01:07:55;;;;;;;1.05;0.75;;;;;;;29.22;43.80;101111.38;4926722;28;97972;-80
2023/08/15 01:10:21;;;;;;;0.95;0.85;;;;;;;29.22;43.81;101105.84;4923287;28;96823;-79
2023/08/15 01:13:00;;;;;;;1.00;0.80;;;;;;;29.23;43.89;101096.47;4926007;28;96643;-79
2023/08/15 01:15:29;;;;;;;1.10;1.00;;;;;;;29.22;43.84;101100.31;4921017;28;97039;-79
2023/08/15 01:18:23;;;;;;;1.13;0.85;;;;;;;29.21;43.98;101099.47;4926016;28;97307;-79
2023/08/15 01:20:50;;;;;;;0.98;0.80;;;;;;;29.20;43.77;101097.78;4933524;28;97137;-79
2023/08/15 01:23:23;;;;;;;1.15;0.80;;;;;;;29.21;43.81;101088.41;4922171;28;96761;-79
2023/08/15 01:25:54;;;;;;;1.23;0.70;;;;;;;29.21;44.00;101087.56;4923124;28;98152;-79
2023/08/15 01:28:21;;;;;;;0.70;0.70;;;;;;;29.20;43.87;101083.09;4948972;28;96976;-79
2023/08/15 01:30:56;;;;;;;1.27;0.80;;;;;;;29.20;43.81;101078.41;4922547;28;98050;-80
2023/08/15 01:33:39;;;;;;;1.95;0.88;;;;;;;29.21;43.97;101074.59;4924771;28;96733;-80
2023/08/15 01:36:12;;;;;;;0.80;0.75;;;;;;;29.20;43.86;101088.63;4921388;28;99958;-79
2023/08/15 01:38:45;;;;;;;1.30;1.00;;;;;;;29.20;43.79;101108.00;4921768;28;99950;-80
2023/08/15 01:41:16;;;;;;;1.42;0.98;;;;;;;29.19;43.70;101118.22;4923834;28;96650;-79
2023/08/15 01:43:44;;;;;;;1.30;0.98;;;;;;;29.20;43.89;101119.06;4915460;28;96709;-80
2023/08/15 01:46:12;;;;;;;1.15;0.88;;;;;;;29.20;44.00;101119.06;4919233;28;96705;-79
2023/08/15 01:48:43;;;;;;;1.17;0.98;;;;;;;29.19;43.72;101140.34;4922405;28;98688;-80
2023/08/15 01:51:10;;;;;;;1.08;0.80;;;;;;;29.20;44.03;101157.78;4923163;28;96918;-80
2023/08/15 01:53:38;;;;;;;1.10;0.90;;;;;;;29.19;43.79;101168.00;4922593;28;96732;-80
2023/08/15 01:56:05;;;;;;;0.95;0.73;;;;;;;29.19;43.92;101170.78;4915627;28;99052;-79
2023/08/15 01:58:31;;;;;;;1.20;0.90;;;;;;;29.19;43.87;101159.72;4921430;28;98410;-79
2023/08/15 02:00:58;;;;;;;1.15;0.80;;;;;;;29.19;43.81;101162.47;4922428;28;96769;-80
2023/08/15 02:03:25;;;;;;;1.45;1.20;;;;;;;29.19;43.86;101162.47;4922208;28;97292;-80
2023/08/15 02:05:52;;;;;;;1.20;1.02;;;;;;;29.19;43.58;101159.72;4920886;28;96670;-79
2023/08/15 02:08:20;;;;;;;1.10;0.80;;;;;;;29.20;43.75;101157.78;4921081;28;97463;-79
2023/08/15 02:10:47;;;;;;;1.08;0.85;;;;;;;29.20;44.08;101163.31;4921806;28;96908;-80
2023/08/15 02:13:13;;;;;;;0.95;0.85;;;;;;;29.20;43.74;101163.31;4921927;28;97602;-79
2023/08/15 02:15:40;;;;;;;1.30;1.00;;;;;;;29.19;44.00;101173.53;4920876;28;101089;-80
2023/08/15 02:18:07;;;;;;;1.20;1.00;;;;;;;29.20;43.94;101179.91;4920560;28;99055;-80
2023/08/15 02:20:33;;;;;;;1.10;0.90;;;;;;;29.19;44.10;101190.13;4921336;28;97227;-79
2023/08/15 02:23:00;;;;;;;1.45;0.82;;;;;;;29.20;43.98;101199.28;4920275;28;96857;-79
2023/08/15 02:25:26;;;;;;;1.42;1.00;;;;;;;29.19;44.09;101197.59;4920253;28;96843;-79
2023/08/15 02:27:53;;;;;;;1.50;1.00;;;;;;;29.19;44.08;101194.81;4921280;28;98673;-80
2023/08/15 02:30:21;;;;;;;1.40;1.08;;;;;;;29.17;44.22;101199.72;4920362;28;96758;-80
2023/08/15 02:32:48;;;;;;;1.38;0.90;;;;;;;29.18;44.12;101196.72;4920737;28;96641;-80
2023/08/15 02:35:14;;;;;;;1.42;0.90;;;;;;;29.18;44.11;101202.25;4913122;28;99888;-79
2023/08/15 02:37:41;;;;;;;1.30;1.05;;;;;;;29.18;44.41;101201.41;4919349;28;98607;-80
2023/08/15 02:40:09;;;;;;;1.35;1.08;;;;;;;29.18;44.17;101190.34;4920467;28;96875;-80
2023/08/15 02:42:36;;;;;;;1.35;1.00;;;;;;;29.17;44.04;101194.19;4918632;28;96893;-80
2023/08/15 02:45:04;;;;;;;1.20;1.00;;;;;;;29.17;44.05;101191.44;4921044;28;99368;-79
2023/08/15 02:47:31;;;;;;;1.70;1.13;;;;;;;29.16;44.00;101193.34;4920721;28;100123;-80
2023/08/15 02:49:58;;;;;;;1.20;0.90;;;;;;;29.17;43.89;101191.44;4920483;28;97136;-80
2023/08/15 02:52:25;;;;;;;1.60;1.00;;;;;;;29.17;44.11;101191.44;4916383;28;97236;-80
2023/08/15 02:54:51;;;;;;;1.02;0.93;;;;;;;29.17;44.02;101185.91;4912350;28;96667;-79
2023/08/15 02:57:18;;;;;;;1.50;0.98;;;;;;;29.17;43.96;101188.66;4914979;28;99310;-80
2023/08/15 02:59:45;;;;;;;1.40;0.90;;;;;;;29.17;43.96;101191.44;4921439;28;97111;-79
2023/08/15 03:02:12;;;;;;;1.08;0.77;;;;;;;29.17;44.23;101194.19;4911103;28;96767;-79
2023/08/15 03:04:39;;;;;;;1.10;1.00;;;;;;;29.16;44.12;101195.25;4920712;28;96768;-80
2023/08/15 03:07:05;;;;;;;1.17;0.95;;;;;;;29.16;43.98;101203.56;4909198;28;99202;-80
2023/08/15 03:09:32;;;;;;;1.88;0.80;;;;;;;29.16;44.21;101211.84;4920173;28;96719;-80
2023/08/15 03:11:58;;;;;;;1.30;1.00;;;;;;;29.16;44.14;101211.84;4917641;28;96827;-80
2023/08/15 03:14:29;;;;;;;1.77;1.20;;;;;;;29.16;44.19;101211.84;4901074;28;99869;-80
2023/08/15 03:16:56;;;;;;;1.15;0.98;;;;;;;29.15;44.19;101205.47;4911948;28;98795;-79
2023/08/15 03:19:22;;;;;;;1.42;1.00;;;;;;;29.15;44.09;101207.41;4921495;28;97289;-79
2023/08/15 03:21:49;;;;;;;1.45;1.13;;;;;;;29.15;44.18;101210.16;4919738;28;96969;-80
2023/08/15 03:24:16;;;;;;;2.28;1.48;;;;;;;29.14;44.05;101212.09;4916483;28;97677;-80
2023/08/15 03:26:43;;;;;;;1.38;1.17;;;;;;;29.14;44.25;101220.38;4909204;28;96939;-80
2023/08/15 03:29:10;;;;;;;0.93;0.80;;;;;;;29.14;44.06;101214.84;4909516;28;96814;-80
2023/08/15 03:31:38;;;;;;;1.52;0.95;;;;;;;29.14;44.02;101202.94;4910673;28;96991;-80
2023/08/15 03:34:04;;;;;;;1.38;1.08;;;;;;;29.14;43.90;101214.00;4892161;28;100147;-80
2023/08/15 03:36:31;;;;;;;1.63;1.10;;;;;;;29.14;44.12;101214.00;4903375;28;99145;-80
2023/08/15 03:38:57;;;;;;;1.42;0.90;;;;;;;29.13;44.12;101207.63;4913081;28;96721;-80
2023/08/15 03:41:24;;;;;;;1.73;1.10;;;;;;;29.12;44.24;101205.06;4890186;28;97759;-80
2023/08/15 03:43:51;;;;;;;0.88;0.80;;;;;;;29.13;44.09;101195.72;4911994;28;97564;-80
2023/08/15 03:46:19;;;;;;;1.10;0.80;;;;;;;29.12;44.19;101194.88;4922703;28;99165;-79
2023/08/15 03:48:46;;;;;;;1.27;1.00;;;;;;;29.11;44.10;101193.16;4896937;28;96684;-80
2023/08/15 03:51:12;;;;;;;1.17;1.08;;;;;;;29.10;44.09;101188.72;4908861;28;96852;-80
2023/08/15 03:53:58;;;;;;;1.20;0.95;;;;;;;29.10;44.36;101191.47;4912682;28;96909;-80
2023/08/15 03:56:24;;;;;;;1.30;1.10;;;;;;;29.09;44.09;101187.84;4911987;28;100221;-80
2023/08/15 03:58:51;;;;;;;1.42;0.85;;;;;;;29.08;44.02;101196.38;4912587;28;96569;-79
2023/08/15 04:01:18;;;;;;;1.35;0.82;;;;;;;29.09;44.09;101200.84;4910601;28;96675;-79
2023/08/15 04:03:47;;;;;;;1.27;1.00;;;;;;;29.09;44.32;101203.59;4916397;28;97922;-80
2023/08/15 04:06:15;;;;;;;1.38;0.90;;;;;;;29.08;43.97;101202.75;4916799;28;97235;-79
2023/08/15 04:08:41;;;;;;;1.75;0.95;;;;;;;29.07;44.22;101192.75;4915582;28;97471;-80
2023/08/15 04:11:09;;;;;;;1.02;0.90;;;;;;;29.08;44.28;101194.47;4919522;28;97877;-80
2023/08/15 04:13:36;;;;;;;1.13;1.02;;;;;;;29.09;44.08;101203.59;4918016;28;96622;-80
2023/08/15 04:16:02;;;;;;;1.63;1.25;;;;;;;29.08;44.17;101204.69;4918408;28;98344;-80
2023/08/15 04:18:29;;;;;;;1.15;0.80;;;;;;;29.07;44.08;101209.34;4919325;28;96852;-79
2023/08/15 04:20:55;;;;;;;1.48;1.00;;;;;;;29.06;44.28;101213.19;4921401;28;96886;-80
2023/08/15 04:23:22;;;;;;;1.13;1.00;;;;;;;29.05;44.08;101205.97;4912126;28;99365;-79
2023/08/15 04:25:49;;;;;;;1.08;0.70;;;;;;;29.06;43.92;101218.72;4920333;28;98400;-80
2023/08/15 04:28:16;;;;;;;0.80;0.80;;;;;;;29.06;44.30;101217.88;4901542;28;97070;-79
2023/08/15 04:30:43;;;;;;;1.20;1.00;;;;;;;29.05;44.44;101208.72;4920800;28;96727;-79
2023/08/15 04:33:09;;;;;;;1.45;0.90;;;;;;;29.06;44.26;101213.19;4915014;28;99205;-80
2023/08/15 04:35:36;;;;;;;1.35;1.00;;;;;;;29.06;44.03;101220.66;4919809;28;99875;-80
2023/08/15 04:38:03;;;;;;;1.65;1.00;;;;;;;29.06;44.17;101228.94;4917166;28;97344;-80
2023/08/15 04:40:39;;;;;;;1.80;1.15;;;;;;;29.07;44.06;101234.25;4904486;28;97319;-80
2023/08/15 04:43:08;;;;;;;1.10;0.90;;;;;;;29.06;44.35;101237.25;4915624;28;99438;-80
2023/08/15 04:45:43;;;;;;;1.75;1.13;;;;;;;29.07;44.29;101241.69;4919496;28;97623;-80
2023/08/15 04:48:12;;;;;;;0.77;0.77;;;;;;;29.06;44.15;101256.59;4921336;28;96825;-80
2023/08/15 04:50:39;;;;;;;1.48;1.00;;;;;;;29.05;44.46;101257.66;4916456;28;96660;-80
2023/08/15 04:53:05;;;;;;;0.95;0.85;;;;;;;29.06;44.38;101256.59;4921071;28;99905;-80
2023/08/15 04:55:33;;;;;;;1.35;1.00;;;;;;;29.06;44.22;101264.88;4903750;28;99118;-79
2023/08/15 04:57:59;;;;;;;0.93;0.80;;;;;;;29.05;44.43;101261.28;4920378;28;96753;-80
2023/08/15 05:00:27;;;;;;;1.08;0.88;;;;;;;29.05;44.63;101264.03;4917162;28;96866;-80
2023/08/15 05:02:56;;;;;;;1.17;0.95;;;;;;;29.05;44.09;101269.56;4920235;28;97491;-80
2023/08/15 05:05:23;;;;;;;1.23;1.00;;;;;;;29.06;44.17;101285.09;4921967;28;98036;-80
2023/08/15 05:07:50;;;;;;;1.05;0.95;;;;;;;29.06;44.40;101287.00;4905323;28;97257;-80
2023/08/15 05:10:16;;;;;;;1.17;0.80;;;;;;;29.06;44.35;101301.69;4921546;28;96769;-80
2023/08/15 05:12:43;;;;;;;1.10;1.00;;;;;;;29.06;43.99;101298.94;4917220;28;100924;-80
2023/08/15 05:15:10;;;;;;;1.27;0.90;;;;;;;29.07;44.28;101308.06;4915115;28;97021;-80
2023/08/15 05:17:36;;;;;;;1.27;1.00;;;;;;;29.06;44.15;101307.22;4917695;28;97192;-80
2023/08/15 05:20:04;;;;;;;1.00;0.82;;;;;;;29.06;44.20;101312.75;4902537;28;96854;-78
2023/08/15 05:22:32;;;;;;;1.85;0.90;;;;;;;29.07;44.38;101313.59;4918950;28;96920;-79
2023/08/15 05:24:58;;;;;;;1.00;0.80;;;;;;;29.06;44.34;101318.28;4901403;28;96721;-79
2023/08/15 05:27:26;;;;;;;2.28;1.30;;;;;;;29.06;44.14;101323.81;4902819;28;96812;-79
2023/08/15 05:29:55;;;;;;;0.98;0.85;;;;;;;29.05;44.17;101316.59;4915922;28;96939;-78
2023/08/15 05:32:22;;;;;;;1.08;0.95;;;;;;;29.06;44.09;101322.97;4916742;28;99051;-79
2023/08/15 05:34:48;;;;;;;1.63;0.90;;;;;;;29.06;44.46;101332.13;4918234;28;97133;-78
2023/08/15 05:37:15;;;;;;;1.00;0.80;;;;;;;29.06;44.15;101336.78;4920239;28;96968;-79
2023/08/15 05:39:42;;;;;;;1.20;1.10;;;;;;;29.06;44.37;101334.03;4918379;28;96837;-79
2023/08/15 05:42:08;;;;;;;1.60;1.10;;;;;;;29.06;44.21;101334.03;4914581;28;97880;-78
2023/08/15 05:44:35;;;;;;;1.30;1.00;;;;;;;29.06;44.14;101329.34;4914873;28;96734;-79
2023/08/15 05:47:01;;;;;;;1.38;0.90;;;;;;;29.06;44.26;101328.50;4915145;28;96629;-79
2023/08/15 05:49:28;;;;;;;1.10;1.00;;;;;;;29.05;44.21;101324.88;4919146;28;96596;-79
2023/08/15 05:51:54;;;;;;;1.20;0.90;;;;;;;29.06;44.40;101323.81;4916278;28;96959;-79
2023/08/15 05:54:21;;;;;;;1.10;0.90;;;;;;;29.06;44.15;101322.97;4913478;28;97562;-78
2023/08/15 05:56:48;;;;;;;1.30;0.93;;;;;;;29.06;44.52;101332.13;4919083;28;96779;-78
2023/08/15 05:59:14;;;;;;;1.15;0.90;;;;;;;29.06;44.22;101340.41;4915508;28;96559;-79
2023/08/15 06:01:41;;;;;;;1.05;0.88;;;;;;;29.07;44.40;101336.56;4915647;28;98484;-79
2023/08/15 06:04:07;;;;;;;1.10;1.00;;;;;;;29.07;44.27;101342.09;4916179;28;96656;-78
2023/08/15 06:06:34;;;;;;;1.25;0.80;;;;;;;29.08;44.13;101342.97;4917526;28;97085;-79
2023/08/15 06:09:01;;;;;;;1.20;0.90;;;;;;;29.08;44.48;101342.97;4916830;28;96810;-78
2023/08/15 06:11:27;;;;;;;1.40;0.88;;;;;;;29.07;44.63;101342.09;4917328;28;96865;-78
2023/08/15 06:13:54;;;;;;;1.55;1.00;;;;;;;29.08;44.08;101345.72;4915084;28;96542;-78
2023/08/15 06:16:20;;;;;;;1.15;0.90;;;;;;;29.09;44.19;101353.81;4917674;28;96644;-79
2023/08/15 06:18:47;;;;;;;1.10;0.88;;;;;;;29.10;44.56;101346.34;4919453;28;98190;-78
2023/08/15 06:21:14;;;;;;;1.25;0.77;;;;;;;29.10;44.34;101357.41;4919574;28;96755;-79
2023/08/15 06:23:40;;;;;;;1.95;1.00;;;;;;;29.10;44.45;101358.25;4918891;28;98706;-78
2023/08/15 06:26:07;;;;;;;1.73;0.80;;;;;;;29.11;44.30;101359.13;4917202;28;96704;-79
2023/08/15 06:28:33;;;;;;;1.58;1.00;;;;;;;29.12;44.39;101365.50;4918690;28;96862;-78
2023/08/15 06:31:00;;;;;;;1.60;0.90;;;;;;;29.13;44.33;101367.19;4914576;28;96934;-78
2023/08/15 06:33:27;;;;;;;1.20;0.98;;;;;;;29.12;44.48;101371.03;4900865;28;97120;-78
2023/08/15 06:35:53;;;;;;;1.80;1.00;;;;;;;29.12;44.31;101371.03;4917229;28;97610;-79
2023/08/15 06:38:20;;;;;;;1.15;0.95;;;;;;;29.12;44.11;101377.41;4919560;28;96392;-78
2023/08/15 06:40:47;;;;;;;1.05;0.70;;;;;;;29.13;44.18;101381.88;4917616;28;99300;-78
2023/08/15 06:43:14;;;;;;;1.38;1.23;;;;;;;29.14;44.26;101382.72;4917802;28;97451;-78
2023/08/15 06:45:40;;;;;;;1.10;0.90;;;;;;;29.16;44.14;101383.34;4916689;28;96708;-78
2023/08/15 06:48:07;;;;;;;1.27;0.90;;;;;;;29.16;44.35;101388.88;4918703;28;97148;-78
2023/08/15 06:50:34;;;;;;;1.10;0.90;;;;;;;29.16;44.30;101386.97;4902727;28;97300;-78
2023/08/15 06:53:00;;;;;;;1.15;0.80;;;;;;;29.16;44.16;101383.34;4912497;28;97309;-78
2023/08/15 06:55:27;;;;;;;1.13;1.00;;;;;;;29.17;44.22;101385.91;4919791;28;96839;-78
2023/08/15 06:57:54;;;;;;;1.13;0.90;;;;;;;29.17;44.13;101396.13;4918233;28;96656;-78
2023/08/15 07:00:20;;;;;;;1.45;0.95;;;;;;;29.18;44.21;101398.66;4909720;28;96877;-78
2023/08/15 07:02:47;;;;;;;1.92;1.08;;;;;;;29.19;44.12;101396.75;4902526;28;97668;-79
2023/08/15 07:05:14;;;;;;;1.20;0.90;;;;;;;29.18;44.34;101398.66;4919078;28;96898;-78
2023/08/15 07:07:41;;;;;;;1.08;0.73;;;;;;;29.19;44.37;101393.97;4926798;28;96859;-78
2023/08/15 07:10:08;;;;;;;0.90;0.70;;;;;;;29.19;44.40;101394.84;4895483;28;96843;-78
2023/08/15 07:12:34;;;;;;;2.33;1.00;;;;;;;29.20;44.35;101396.53;4913044;28;96789;-79
2023/08/15 07:15:01;;;;;;;1.48;0.90;;;;;;;29.20;44.25;101391.00;4913363;28;97192;-79
2023/08/15 07:17:28;;;;;;;1.35;0.80;;;;;;;29.20;44.29;101402.06;4916551;28;96738;-79
2023/08/15 07:19:55;;;;;;;1.45;1.00;;;;;;;29.21;44.10;101401.00;4916115;28;98121;-78
2023/08/15 07:22:22;;;;;;;0.98;0.88;;;;;;;29.22;44.32;101401.84;4917442;28;98430;-79
2023/08/15 07:24:49;;;;;;;0.90;0.70;;;;;;;29.21;44.23;101403.75;4914782;28;96819;-79
2023/08/15 07:27:16;;;;;;;1.52;0.80;;;;;;;29.21;44.17;101406.53;4920413;28;97081;-78
2023/08/15 07:29:43;;;;;;;1.20;0.93;;;;;;;29.22;44.28;101415.69;4923078;28;99004;-78
2023/08/15 07:32:10;;;;;;;1.10;0.90;;;;;;;29.22;44.55;101411.00;4910078;28;97103;-78
2023/08/15 07:34:39;;;;;;;1.10;0.80;;;;;;;29.21;44.26;101403.75;4924684;28;96802;-78
2023/08/15 07:37:06;;;;;;;1.27;1.00;;;;;;;29.23;44.38;101409.94;4913703;28;96568;-78
2023/08/15 07:39:32;;;;;;;1.00;0.85;;;;;;;29.23;44.15;101407.16;4926395;28;96647;-78
2023/08/15 07:41:59;;;;;;;1.10;0.80;;;;;;;29.24;44.49;101408.84;4929296;28;97403;-78
2023/08/15 07:44:25;;;;;;;1.17;0.80;;;;;;;29.24;44.06;101408.84;4928066;28;96583;-77
2023/08/15 07:46:52;;;;;;;1.23;0.80;;;;;;;29.25;44.31;101407.78;4928286;28;97016;-78
2023/08/15 07:49:19;;;;;;;0.93;0.73;;;;;;;29.26;44.53;101409.50;4920858;28;97669;-78
2023/08/15 07:51:45;;;;;;;1.23;0.90;;;;;;;29.26;44.07;101408.63;4928304;28;96803;-78
2023/08/15 07:54:13;;;;;;;2.03;0.98;;;;;;;29.27;44.33;101413.09;4928938;28;96608;-78
2023/08/15 07:56:39;;;;;;;1.17;1.00;;;;;;;29.26;44.08;101412.25;4927807;28;96962;-78
2023/08/15 07:59:06;;;;;;;1.15;0.70;;;;;;;29.28;44.38;101414.81;4927155;28;97817;-78
2023/08/15 08:01:32;;;;;;;1.20;0.80;;;;;;;29.28;44.30;101417.56;4926857;28;96806;-78
2023/08/15 08:04:00;;;;;;;1.05;0.80;;;;;;;29.28;44.30;101420.34;4926877;28;96779;-78
2023/08/15 08:06:27;;;;;;;1.38;0.90;;;;;;;29.28;44.00;101425.88;4927104;28;96643;-78
2023/08/15 08:09:06;;;;;;;1.65;0.82;;;;;;;29.28;44.19;101432.25;4912218;28;96903;-78
2023/08/15 08:11:33;;;;;;;0.98;0.70;;;;;;;29.28;44.08;101434.16;4927967;28;97234;-78
2023/08/15 08:13:59;;;;;;;1.20;0.75;;;;;;;29.29;44.47;101428.41;4927512;28;97137;-78
2023/08/15 08:16:26;;;;;;;1.52;0.95;;;;;;;29.29;44.18;101441.41;4925318;28;96874;-78
2023/08/15 08:18:53;;;;;;;1.75;0.80;;;;;;;29.30;44.56;101443.09;4925725;28;98193;-78
2023/08/15 08:21:20;;;;;;;1.25;0.90;;;;;;;29.31;44.16;101442.03;4924392;28;96708;-78
2023/08/15 08:23:46;;;;;;;0.90;0.80;;;;;;;29.31;44.38;101442.03;4925335;28;96981;-78
2023/08/15 08:26:13;;;;;;;1.20;0.75;;;;;;;29.30;44.35;101441.19;4924033;28;96912;-78
2023/08/15 08:28:40;;;;;;;1.25;0.77;;;;;;;29.31;44.38;101444.81;4924025;28;96997;-78
2023/08/15 08:31:06;;;;;;;1.27;0.70;;;;;;;29.31;44.27;101450.34;4926526;28;97251;-79
2023/08/15 08:33:33;;;;;;;1.00;0.75;;;;;;;29.31;44.34;101456.72;4924203;28;96771;-78
2023/08/15 08:36:00;;;;;;;0.70;0.60;;;;;;;29.31;44.28;101451.19;4924352;28;96579;-79
2023/08/15 08:38:26;;;;;;;0.80;0.60;;;;;;;29.32;44.20;101452.03;4924666;28;97849;-79
2023/08/15 08:40:57;;;;;;;1.05;0.77;;;;;;;29.31;44.44;101445.66;4905667;28;98456;-78
2023/08/15 08:43:25;;;;;;;1.00;0.77;;;;;;;29.32;44.37;101452.03;4921395;28;96960;-79
2023/08/15 08:45:54;;;;;;;0.85;0.75;;;;;;;29.31;44.17;101451.19;4922754;28;96871;-78
2023/08/15 08:48:21;;;;;;;1.23;0.95;;;;;;;29.32;44.35;101443.72;4925998;28;98096;-78
2023/08/15 08:50:48;;;;;;;0.90;0.73;;;;;;;29.32;44.23;101446.50;4927863;28;97256;-78
2023/08/15 08:53:15;;;;;;;1.05;0.80;;;;;;;29.32;44.23;101455.66;4927474;28;97112;-78
2023/08/15 08:55:47;;;;;;;0.88;0.73;;;;;;;29.33;44.31;101440.75;4925007;28;96752;-78
2023/08/15 08:58:14;;;;;;;1.23;0.88;;;;;;;29.33;44.14;101450.97;4927935;28;97209;-79
2023/08/15 09:00:41;;;;;;;1.38;0.60;;;;;;;29.33;44.27;101450.97;4908707;28;98618;-78
2023/08/15 09:03:08;;;;;;;0.80;0.77;;;;;;;29.32;44.37;101444.59;4927279;28;96782;-79
2023/08/15 09:05:35;;;;;;;0.80;0.70;;;;;;;29.33;44.34;101442.66;4912470;28;96913;-78
2023/08/15 09:08:03;;;;;;;0.95;0.50;;;;;;;29.33;44.13;101457.34;4915271;28;97012;-78
2023/08/15 09:10:30;;;;;;;1.00;0.82;;;;;;;29.33;44.02;101456.50;4923755;28;97121;-78
2023/08/15 09:12:59;;;;;;;0.98;0.77;;;;;;;29.32;44.35;101458.41;4932249;28;96738;-79
2023/08/15 09:15:26;;;;;;;1.13;0.85;;;;;;;29.32;44.05;101463.94;4918171;28;96870;-79
2023/08/15 09:18:04;;;;;;;1.33;0.70;;;;;;;29.32;44.17;101466.72;4915261;28;96680;-78
2023/08/15 09:20:32;;;;;;;1.00;0.90;;;;;;;29.32;44.34;101469.47;4925640;28;97599;-78
2023/08/15 09:23:00;;;;;;;0.82;0.60;;;;;;;29.33;44.10;101464.81;4931082;28;96533;-78
2023/08/15 09:25:27;;;;;;;1.13;0.70;;;;;;;29.34;44.45;101474.81;4926684;28;96785;-78
2023/08/15 09:27:54;;;;;;;0.80;0.80;;;;;;;29.34;44.31;101472.03;4930488;28;97921;-78
2023/08/15 09:30:21;;;;;;;1.23;0.80;;;;;;;29.33;44.32;101473.94;4922234;28;96720;-78
2023/08/15 09:32:48;;;;;;;1.10;0.60;;;;;;;29.34;44.19;101486.72;4928644;28;97144;-78
2023/08/15 09:35:18;;;;;;;1.20;0.63;;;;;;;29.35;44.60;101480.13;4927294;28;96756;-79
2023/08/15 09:37:47;;;;;;;0.88;0.70;;;;;;;29.35;44.22;101484.81;4927624;28;96874;-78
2023/08/15 09:40:32;;;;;;;0.73;0.60;;;;;;;29.36;44.50;101478.19;4931641;28;96741;-78
2023/08/15 09:42:58;;;;;;;0.93;0.80;;;;;;;29.35;44.30;101484.81;4930424;28;96777;-78
2023/08/15 09:45:26;;;;;;;0.68;0.55;;;;;;;29.36;44.32;101503.09;4926215;28;96711;-78
2023/08/15 09:47:52;;;;;;;0.65;0.63;;;;;;;29.36;44.43;101515.03;4924941;28;96888;-78
2023/08/15 09:50:19;;;;;;;0.70;0.60;;;;;;;29.35;44.41;101505.03;4926778;28;98307;-78
2023/08/15 09:52:47;;;;;;;1.50;0.60;;;;;;;29.36;44.55;101511.41;4929254;28;96573;-78
2023/08/15 09:55:18;;;;;;;1.52;0.70;;;;;;;29.36;44.61;101511.41;4929181;28;96695;-78
2023/08/15 09:57:46;;;;;;;1.02;0.60;;;;;;;29.37;44.37;101513.09;4925273;28;97249;-78
2023/08/15 10:00:16;;;;;;;0.93;0.70;;;;;;;29.37;44.46;101507.56;4928993;28;97997;-78
2023/08/15 10:02:47;;;;;;;1.10;0.70;;;;;;;29.36;44.36;101509.47;4902774;28;96611;-78
2023/08/15 10:05:19;;;;;;;0.98;0.60;;;;;;;29.37;44.53;101519.50;4928666;28;96811;-78
2023/08/15 10:07:46;;;;;;;1.00;0.90;;;;;;;29.38;44.75;101521.19;4930254;28;97714;-79
2023/08/15 10:10:15;;;;;;;0.85;0.50;;;;;;;29.37;44.63;101518.63;4911768;28;99839;-78
2023/08/15 10:12:43;;;;;;;1.10;0.70;;;;;;;29.38;44.17;101528.63;4928378;28;96655;-78
2023/08/15 10:15:10;;;;;;;1.23;0.60;;;;;;;29.37;44.37;101519.50;4926506;28;96795;-78
2023/08/15 10:17:38;;;;;;;1.23;0.60;;;;;;;29.37;44.52;101522.25;4921172;28;96998;-78
2023/08/15 10:20:05;;;;;;;1.00;0.70;;;;;;;29.37;44.42;101533.31;4928769;28;96933;-78
2023/08/15 10:22:34;;;;;;;0.73;0.60;;;;;;;29.38;44.34;101529.50;4929963;28;97176;-79
2023/08/15 10:25:22;;;;;;;1.30;0.80;;;;;;;29.38;44.38;101525.88;4924116;28;96751;-79
2023/08/15 10:27:52;;;;;;;1.15;0.63;;;;;;;29.37;44.35;101535.25;4921560;28;97666;-78
2023/08/15 10:30:29;;;;;;;0.73;0.70;;;;;;;29.37;44.36;101532.47;4915835;28;96996;-78
2023/08/15 10:33:11;;;;;;;1.30;0.60;;;;;;;29.38;44.48;101528.63;4922741;28;96564;-79
2023/08/15 10:36:02;;;;;;;0.85;0.60;;;;;;;29.38;44.29;101539.72;4926398;28;96979;-78
2023/08/15 10:38:39;;;;;;;0.60;0.57;;;;;;;29.38;44.14;101553.53;4924005;28;97816;-78
2023/08/15 10:41:05;;;;;;;1.13;0.70;;;;;;;29.38;44.46;101548.00;4928028;28;96659;-78
2023/08/15 10:43:35;;;;;;;0.90;0.57;;;;;;;29.38;44.23;101545.25;4927420;28;96763;-78
2023/08/15 10:46:04;;;;;;;0.80;0.60;;;;;;;29.39;44.28;101539.50;4925863;28;97235;-78
2023/08/15 10:48:48;;;;;;;1.05;0.70;;;;;;;29.39;44.12;101527.56;4923374;28;96962;-78
2023/08/15 10:51:32;;;;;;;1.45;0.70;;;;;;;29.38;44.21;101528.63;4923624;28;98953;-79
2023/08/15 10:54:01;;;;;;;1.42;0.70;;;;;;;29.39;44.37;101528.44;4926494;28;96807;-78
2023/08/15 10:56:32;;;;;;;0.95;0.50;;;;;;;29.39;44.39;101527.56;4924303;28;96970;-79
2023/08/15 10:59:04;;;;;;;0.80;0.50;;;;;;;29.39;44.31;101528.44;4925926;28;96417;-79
2023/08/15 11:01:31;;;;;;;0.88;0.75;;;;;;;29.40;44.37;101532.03;4926074;28;97877;-78
2023/08/15 11:03:58;;;;;;;1.05;0.70;;;;;;;29.40;44.35;101537.56;4927270;28;96782;-78
2023/08/15 11:06:24;;;;;;;1.60;0.80;;;;;;;29.39;44.43;101528.44;4921682;28;96923;-78
2023/08/15 11:08:53;;;;;;;0.90;0.70;;;;;;;29.40;44.16;101543.09;4923985;28;96763;-78
2023/08/15 11:11:20;;;;;;;1.15;0.60;;;;;;;29.40;44.13;101543.97;4926228;28;97483;-78
2023/08/15 11:13:48;;;;;;;1.38;0.77;;;;;;;29.41;44.01;101544.81;4923280;28;96712;-80
2023/08/15 11:16:17;;;;;;;1.40;0.60;;;;;;;29.42;44.24;101546.50;4921456;28;96862;-79
2023/08/15 11:18:44;;;;;;;1.20;0.68;;;;;;;29.41;44.30;101544.81;4924896;28;97978;-79
2023/08/15 11:21:12;;;;;;;0.98;0.63;;;;;;;29.41;44.12;101550.34;4924991;28;98346;-80
2023/08/15 11:23:40;;;;;;;0.85;0.60;;;;;;;29.40;44.31;101545.88;4925071;28;96946;-79
2023/08/15 11:26:10;;;;;;;0.93;0.70;;;;;;;29.41;44.41;101550.34;4922545;28;96798;-80
2023/08/15 11:28:37;;;;;;;1.33;0.70;;;;;;;29.41;44.44;101550.34;4922544;28;97931;-79